Time;durP1;ratioP1;P1;durP2;ratioP2;P2;SDS_P1;SDS_P2;PMS_P1;PMS_P2;Temp;Humidity;BMP_temperature;BMP_pressure;BME280_temperature;BME280_humidity;BME280_pressure;Samples;Min_cycle;Max_cycle;Signal;HPM_P1;HPM_P2
2024/02/18 00:00:37;;;;;;;1999.90;999.90;;;;;;;;;;6249765;23;20366;-93
2024/02/18 00:03:04;;;;;;;1999.90;999.90;;;;;;;;;;6249088;23;20027;-93
2024/02/18 00:05:33;;;;;;;1999.90;999.90;;;;;;;;;;6249534;23;20512;-93
2024/02/18 00:08:01;;;;;;;1999.90;999.90;;;;;;;;;;6249383;23;20054;-95
2024/02/18 00:10:28;;;;;;;1999.90;999.90;;;;;;;;;;6249683;23;20012;-93
2024/02/18 00:12:55;;;;;;;1999.90;999.90;;;;;;;;;;6249274;23;20333;-92
2024/02/18 00:15:21;;;;;;;1999.90;999.90;;;;;;;;;;6248767;23;20027;-93
2024/02/18 00:17:49;;;;;;;1999.90;999.90;;;;;;;;;;6248915;23;20028;-93
2024/02/18 00:20:16;;;;;;;1999.90;999.90;;;;;;;;;;6248629;23;20012;-94
2024/02/18 00:22:44;;;;;;;1999.90;999.90;;;;;;;;;;6249354;23;20418;-93
2024/02/18 00:25:11;;;;;;;1999.90;999.90;;;;;;;;;;6248691;23;20024;-92
2024/02/18 00:27:37;;;;;;;1999.90;999.90;;;;;;;;;;6250151;23;20050;-93
2024/02/18 00:30:06;;;;;;;1999.90;999.90;;;;;;;;;;6249134;23;20456;-94
2024/02/18 00:32:32;;;;;;;1999.90;999.90;;;;;;;;;;6249202;23;20028;-95
2024/02/18 00:34:59;;;;;;;1999.90;999.90;;;;;;;;;;6249370;23;20043;-92
2024/02/18 00:37:26;;;;;;;1999.90;999.90;;;;;;;;;;6248561;23;20515;-84
2024/02/18 00:39:53;;;;;;;1999.90;999.90;;;;;;;;;;6241837;23;20077;-83
2024/02/18 00:42:20;;;;;;;1999.90;999.90;;;;;;;;;;6241358;23;20071;-83
2024/02/18 00:44:46;;;;;;;1999.90;999.90;;;;;;;;;;6241706;23;20024;-83
2024/02/18 00:47:13;;;;;;;1999.90;999.90;;;;;;;;;;6241039;23;20024;-83
2024/02/18 00:49:40;;;;;;;1999.90;999.90;;;;;;;;;;6241158;23;20104;-83
2024/02/18 00:52:06;;;;;;;1999.90;999.90;;;;;;;;;;6241602;23;20123;-83
2024/02/18 00:54:33;;;;;;;1999.90;999.90;;;;;;;;;;6240803;23;20024;-82
2024/02/18 00:57:01;;;;;;;1999.90;999.90;;;;;;;;;;6240918;23;20024;-83
2024/02/18 00:59:28;;;;;;;1999.90;999.90;;;;;;;;;;6241397;23;20026;-83
2024/02/18 01:01:54;;;;;;;1999.90;999.90;;;;;;;;;;6244126;23;20043;-88
2024/02/18 01:04:21;;;;;;;1999.90;999.90;;;;;;;;;;6245836;23;20099;-87
2024/02/18 01:06:48;;;;;;;1999.90;999.90;;;;;;;;;;6243215;23;20472;-86
2024/02/18 01:09:14;;;;;;;1999.90;999.90;;;;;;;;;;6243367;23;20459;-86
2024/02/18 01:11:41;;;;;;;1999.90;999.90;;;;;;;;;;6243630;23;20024;-86
2024/02/18 01:14:09;;;;;;;1999.90;999.90;;;;;;;;;;6244172;23;20026;-86
2024/02/18 01:16:36;;;;;;;1999.90;999.90;;;;;;;;;;6243166;23;20031;-86
2024/02/18 01:19:03;;;;;;;1999.90;999.90;;;;;;;;;;6244342;23;20032;-86
2024/02/18 01:21:29;;;;;;;1999.90;999.90;;;;;;;;;;6243909;23;20047;-87
2024/02/18 01:23:56;;;;;;;1999.90;999.90;;;;;;;;;;6243368;23;20053;-87
2024/02/18 01:26:23;;;;;;;1999.90;999.90;;;;;;;;;;6242991;23;20020;-86
2024/02/18 01:28:49;;;;;;;1999.90;999.90;;;;;;;;;;6242977;23;20040;-86
2024/02/18 01:31:17;;;;;;;1999.90;999.90;;;;;;;;;;6242108;23;20102;-87
2024/02/18 01:33:45;;;;;;;1999.90;999.90;;;;;;;;;;6242542;23;20085;-86
2024/02/18 01:36:12;;;;;;;1999.90;999.90;;;;;;;;;;6246567;23;20020;-86
2024/02/18 01:38:39;;;;;;;1999.90;999.90;;;;;;;;;;6265370;23;20111;-87
2024/02/18 01:41:05;;;;;;;1999.90;999.90;;;;;;;;;;6265895;23;20032;-89
2024/02/18 01:43:32;;;;;;;1999.90;999.90;;;;;;;;;;6263221;23;20051;-87
2024/02/18 01:45:58;;;;;;;1999.90;999.90;;;;;;;;;;6246362;23;20087;-87
2024/02/18 01:48:26;;;;;;;1999.90;999.90;;;;;;;;;;6225506;22;20360;-80
2024/02/18 01:50:53;;;;;;;1999.90;999.90;;;;;;;;;;6181192;23;20025;-81
2024/02/18 01:53:20;;;;;;;1999.90;999.90;;;;;;;;;;6180816;23;20044;-83
2024/02/18 01:55:47;;;;;;;1999.90;999.90;;;;;;;;;;6180977;23;20024;-81
2024/02/18 01:58:14;;;;;;;1999.90;999.90;;;;;;;;;;6181215;23;20100;-82
2024/02/18 02:00:40;;;;;;;1999.90;999.90;;;;;;;;;;6180855;23;20029;-81
2024/02/18 02:03:07;;;;;;;1999.90;999.90;;;;;;;;;;6181063;23;20047;-81
2024/02/18 02:05:39;;;;;;;1999.90;999.90;;;;;;;;;;6180496;23;20021;-81
2024/02/18 02:08:06;;;;;;;1999.90;999.90;;;;;;;;;;6180453;23;20021;-81
2024/02/18 02:10:33;;;;;;;1999.90;999.90;;;;;;;;;;6180349;23;20333;-81
2024/02/18 02:12:59;;;;;;;1999.90;999.90;;;;;;;;;;6180504;23;20021;-81
2024/02/18 02:15:26;;;;;;;1999.90;999.90;;;;;;;;;;6180777;23;20021;-82
2024/02/18 02:17:53;;;;;;;1999.90;999.90;;;;;;;;;;6180552;23;20027;-80
2024/02/18 02:20:19;;;;;;;1999.90;999.90;;;;;;;;;;6180788;23;20479;-80
2024/02/18 02:22:47;;;;;;;1999.90;999.90;;;;;;;;;;6180436;23;20017;-82
2024/02/18 02:25:14;;;;;;;1999.90;999.90;;;;;;;;;;6180803;23;20025;-80
2024/02/18 02:27:42;;;;;;;1999.90;999.90;;;;;;;;;;6180653;23;20094;-80
2024/02/18 02:30:11;;;;;;;1999.90;999.90;;;;;;;;;;6180181;23;20470;-80
2024/02/18 02:32:37;;;;;;;1999.90;999.90;;;;;;;;;;6180109;23;20032;-81
2024/02/18 02:35:05;;;;;;;1999.90;999.90;;;;;;;;;;6180108;23;20383;-81
2024/02/18 02:37:32;;;;;;;1999.90;999.90;;;;;;;;;;6180271;23;20021;-81
2024/02/18 02:39:58;;;;;;;1999.90;999.90;;;;;;;;;;6180123;23;20025;-81
2024/02/18 02:42:25;;;;;;;1999.90;999.90;;;;;;;;;;6179808;23;20478;-82
2024/02/18 02:44:51;;;;;;;1999.90;999.90;;;;;;;;;;6180070;23;20060;-81
2024/02/18 02:47:19;;;;;;;1999.90;999.90;;;;;;;;;;6179994;23;20104;-81
2024/02/18 02:49:45;;;;;;;1999.90;999.90;;;;;;;;;;6181974;23;20032;-80
2024/02/18 02:52:12;;;;;;;1999.90;999.90;;;;;;;;;;6182891;23;20024;-82
2024/02/18 02:54:39;;;;;;;1999.90;999.90;;;;;;;;;;6182494;23;20024;-81
2024/02/18 02:57:05;;;;;;;1999.90;999.90;;;;;;;;;;6182489;23;20028;-81
2024/02/18 02:59:32;;;;;;;1999.90;999.90;;;;;;;;;;6182362;23;20032;-81
2024/02/18 03:01:58;;;;;;;1999.90;999.90;;;;;;;;;;6182317;23;20096;-81
2024/02/18 03:04:26;;;;;;;1999.90;999.90;;;;;;;;;;6183005;23;20464;-81
2024/02/18 03:06:53;;;;;;;1999.90;999.90;;;;;;;;;;6182366;23;20021;-81
2024/02/18 03:09:19;;;;;;;1999.90;999.90;;;;;;;;;;6181988;23;20024;-81
2024/02/18 03:11:46;;;;;;;1999.90;999.90;;;;;;;;;;6182044;23;20025;-81
2024/02/18 03:14:12;;;;;;;1999.90;999.90;;;;;;;;;;6182143;23;20719;-81
2024/02/18 03:16:38;;;;;;;1999.90;999.90;;;;;;;;;;6182398;23;20023;-81
2024/02/18 03:19:05;;;;;;;1999.90;999.90;;;;;;;;;;6181921;23;20108;-81
2024/02/18 03:21:33;;;;;;;1999.90;999.90;;;;;;;;;;6181769;23;20422;-81
2024/02/18 03:23:59;;;;;;;1999.90;999.90;;;;;;;;;;6181777;23;20025;-81
2024/02/18 03:26:26;;;;;;;1999.90;999.90;;;;;;;;;;6181508;23;20017;-83
2024/02/18 03:28:53;;;;;;;1999.90;999.90;;;;;;;;;;6181802;23;20025;-81
2024/02/18 03:31:20;;;;;;;1999.90;999.90;;;;;;;;;;6181648;23;20021;-81
2024/02/18 03:33:47;;;;;;;1999.90;999.90;;;;;;;;;;6181841;23;20105;-82
2024/02/18 03:36:14;;;;;;;1999.90;999.90;;;;;;;;;;6181517;23;20460;-81
2024/02/18 03:38:41;;;;;;;1999.90;999.90;;;;;;;;;;6181555;23;20027;-81
2024/02/18 03:41:08;;;;;;;1999.90;999.90;;;;;;;;;;6181853;23;20029;-81
2024/02/18 03:43:35;;;;;;;1999.90;999.90;;;;;;;;;;6181582;23;20021;-82
2024/02/18 03:46:02;;;;;;;1999.90;999.90;;;;;;;;;;6181367;23;20611;-81
2024/02/18 03:48:29;;;;;;;1999.90;999.90;;;;;;;;;;6181571;23;20080;-81
2024/02/18 03:50:55;;;;;;;1999.90;999.90;;;;;;;;;;6182173;23;20390;-82
2024/02/18 03:53:22;;;;;;;1999.90;999.90;;;;;;;;;;6181989;23;20017;-81
2024/02/18 03:55:50;;;;;;;1999.90;999.90;;;;;;;;;;6181792;23;20033;-80
2024/02/18 03:58:16;;;;;;;1999.90;999.90;;;;;;;;;;6181743;23;20340;-82
2024/02/18 04:00:46;;;;;;;1999.90;999.90;;;;;;;;;;6181399;23;20021;-82
2024/02/18 04:03:12;;;;;;;1999.90;999.90;;;;;;;;;;6181166;23;20448;-82
2024/02/18 04:05:39;;;;;;;1999.90;999.90;;;;;;;;;;6181765;23;20017;-80
2024/02/18 04:08:06;;;;;;;1999.90;999.90;;;;;;;;;;6181422;23;20025;-81
2024/02/18 04:10:32;;;;;;;1999.90;999.90;;;;;;;;;;6181030;23;20460;-82
2024/02/18 04:13:00;;;;;;;1999.90;999.90;;;;;;;;;;6181656;23;20021;-81
2024/02/18 04:15:27;;;;;;;1999.90;999.90;;;;;;;;;;6181939;23;20021;-81
2024/02/18 04:17:54;;;;;;;1999.90;999.90;;;;;;;;;;6181482;23;20020;-81
2024/02/18 04:20:21;;;;;;;1999.90;999.90;;;;;;;;;;6181439;23;20021;-81
2024/02/18 04:22:47;;;;;;;1999.90;999.90;;;;;;;;;;6181195;23;20647;-82
2024/02/18 04:25:14;;;;;;;1999.90;999.90;;;;;;;;;;6181781;23;20021;-81
2024/02/18 04:27:41;;;;;;;1999.90;999.90;;;;;;;;;;6181070;23;20029;-81
2024/02/18 04:30:09;;;;;;;1999.90;999.90;;;;;;;;;;6181663;23;20021;-81
2024/02/18 04:32:36;;;;;;;1999.90;999.90;;;;;;;;;;6181266;23;20021;-81
2024/02/18 04:35:03;;;;;;;1999.90;999.90;;;;;;;;;;6181998;23;20402;-81
2024/02/18 04:37:29;;;;;;;1999.90;999.90;;;;;;;;;;6181205;23;20439;-81
2024/02/18 04:39:57;;;;;;;1999.90;999.90;;;;;;;;;;6181303;23;20021;-78
2024/02/18 04:42:23;;;;;;;1999.90;999.90;;;;;;;;;;6181320;23;20021;-79
2024/02/18 04:44:50;;;;;;;1999.90;999.90;;;;;;;;;;6181655;23;20028;-78
2024/02/18 04:47:17;;;;;;;1999.90;999.90;;;;;;;;;;6182195;23;20028;-80
2024/02/18 04:49:44;;;;;;;1999.90;999.90;;;;;;;;;;6181986;23;20028;-81
2024/02/18 04:52:11;;;;;;;1999.90;999.90;;;;;;;;;;6181862;23;20553;-82
2024/02/18 04:54:37;;;;;;;1999.90;999.90;;;;;;;;;;6181892;23;20099;-81
2024/02/18 04:57:05;;;;;;;1999.90;999.90;;;;;;;;;;6181646;23;20104;-81
2024/02/18 04:59:33;;;;;;;1999.90;999.90;;;;;;;;;;6181413;23;20463;-82
2024/02/18 05:02:00;;;;;;;1999.90;999.90;;;;;;;;;;6181764;23;20059;-82
2024/02/18 05:04:31;;;;;;;1999.90;999.90;;;;;;;;;;6182044;23;20042;-81
2024/02/18 05:06:57;;;;;;;1999.90;999.90;;;;;;;;;;6181794;23;20025;-81
2024/02/18 05:09:24;;;;;;;1999.90;999.90;;;;;;;;;;6182001;23;20067;-81
2024/02/18 05:11:50;;;;;;;1999.90;999.90;;;;;;;;;;6181122;23;20035;-81
2024/02/18 05:14:17;;;;;;;1999.90;999.90;;;;;;;;;;6181337;23;20393;-81
2024/02/18 05:16:43;;;;;;;1999.90;999.90;;;;;;;;;;6181851;23;20025;-83
2024/02/18 05:19:10;;;;;;;1999.90;999.90;;;;;;;;;;6182042;23;20024;-81
2024/02/18 05:21:40;;;;;;;1999.90;999.90;;;;;;;;;;6181718;23;20025;-80
2024/02/18 05:24:06;;;;;;;1999.90;999.90;;;;;;;;;;6182258;23;20020;-81
2024/02/18 05:26:33;;;;;;;1999.90;999.90;;;;;;;;;;6181763;23;20021;-82
2024/02/18 05:28:59;;;;;;;1999.90;999.90;;;;;;;;;;6182179;23;20025;-81
2024/02/18 05:31:26;;;;;;;1999.90;999.90;;;;;;;;;;6181696;23;20017;-81
2024/02/18 05:33:53;;;;;;;1999.90;999.90;;;;;;;;;;6182044;23;20021;-81
2024/02/18 05:36:20;;;;;;;1999.90;999.90;;;;;;;;;;6181644;23;20351;-84
2024/02/18 05:38:48;;;;;;;1999.90;999.90;;;;;;;;;;6181843;23;20021;-82
2024/02/18 05:41:16;;;;;;;1999.90;999.90;;;;;;;;;;6182479;23;20031;-81
2024/02/18 05:43:42;;;;;;;1999.90;999.90;;;;;;;;;;6181941;23;20104;-83
2024/02/18 05:46:11;;;;;;;1999.90;999.90;;;;;;;;;;6181506;23;20444;-82
2024/02/18 05:48:38;;;;;;;1999.90;999.90;;;;;;;;;;6181387;23;20348;-81
2024/02/18 05:51:05;;;;;;;1999.90;999.90;;;;;;;;;;6181033;23;20025;-83
2024/02/18 05:53:32;;;;;;;1999.90;999.90;;;;;;;;;;6181430;23;20028;-81
2024/02/18 05:55:59;;;;;;;1999.90;999.90;;;;;;;;;;6181383;23;20032;-81
2024/02/18 05:58:26;;;;;;;1999.90;999.90;;;;;;;;;;6180885;23;20025;-81
2024/02/18 06:00:52;;;;;;;1999.90;999.90;;;;;;;;;;6181163;23;20025;-81
2024/02/18 06:03:19;;;;;;;1999.90;999.90;;;;;;;;;;6181054;23;20031;-82
2024/02/18 06:05:45;;;;;;;1999.90;999.90;;;;;;;;;;6181089;23;20021;-81
2024/02/18 06:08:12;;;;;;;1999.90;999.90;;;;;;;;;;6181284;23;20028;-82
2024/02/18 06:10:38;;;;;;;1999.90;999.90;;;;;;;;;;6181137;23;20021;-81
2024/02/18 06:13:06;;;;;;;1999.90;999.90;;;;;;;;;;6181382;23;20024;-81
2024/02/18 06:15:33;;;;;;;1999.90;999.90;;;;;;;;;;6180784;23;20497;-82
2024/02/18 06:18:00;;;;;;;1999.90;999.90;;;;;;;;;;6181275;23;20024;-81
2024/02/18 06:20:27;;;;;;;1999.90;999.90;;;;;;;;;;6181347;23;20071;-81
2024/02/18 06:22:58;;;;;;;1999.90;999.90;;;;;;;;;;6180660;23;20103;-81
2024/02/18 06:25:25;;;;;;;1999.90;999.90;;;;;;;;;;6181026;23;20248;-81
2024/02/18 06:27:52;;;;;;;1999.90;999.90;;;;;;;;;;6180811;23;20095;-81
2024/02/18 06:30:20;;;;;;;1999.90;999.90;;;;;;;;;;6181054;23;20035;-82
2024/02/18 06:32:46;;;;;;;1999.90;999.90;;;;;;;;;;6180922;23;20021;-82
2024/02/18 06:35:13;;;;;;;1999.90;999.90;;;;;;;;;;6180801;23;20032;-83
2024/02/18 06:37:41;;;;;;;1999.90;999.90;;;;;;;;;;6180923;23;20535;-81
2024/02/18 06:40:09;;;;;;;1999.90;999.90;;;;;;;;;;6181513;23;20024;-82
2024/02/18 06:42:36;;;;;;;1999.90;999.90;;;;;;;;;;6180849;23;20032;-82
2024/02/18 06:45:02;;;;;;;1999.90;999.90;;;;;;;;;;6180971;23;20023;-81
2024/02/18 06:47:31;;;;;;;1999.90;999.90;;;;;;;;;;6181116;23;20021;-81
2024/02/18 06:49:57;;;;;;;1999.90;999.90;;;;;;;;;;6181209;23;20424;-82
2024/02/18 06:52:23;;;;;;;1999.90;999.90;;;;;;;;;;6180806;23;20021;-80
2024/02/18 06:54:55;;;;;;;1999.90;999.90;;;;;;;;;;6180777;23;20017;-81
2024/02/18 06:57:22;;;;;;;1999.90;999.90;;;;;;;;;;6180828;23;20032;-81
2024/02/18 06:59:49;;;;;;;1999.90;999.90;;;;;;;;;;6181039;23;20048;-81
2024/02/18 07:02:15;;;;;;;1999.90;999.90;;;;;;;;;;6180883;23;20028;-81
2024/02/18 07:04:43;;;;;;;1999.90;999.90;;;;;;;;;;6180603;23;20029;-80
2024/02/18 07:07:09;;;;;;;1999.90;999.90;;;;;;;;;;6180519;23;20023;-79
2024/02/18 07:09:36;;;;;;;1999.90;999.90;;;;;;;;;;6180739;23;20025;-79
2024/02/18 07:12:04;;;;;;;1999.90;999.90;;;;;;;;;;6180342;23;20017;-80
2024/02/18 07:14:30;;;;;;;1999.90;999.90;;;;;;;;;;6180337;23;20019;-79
2024/02/18 07:16:57;;;;;;;1999.90;999.90;;;;;;;;;;6180551;23;20017;-79
2024/02/18 07:19:23;;;;;;;1999.90;999.90;;;;;;;;;;6180573;23;20021;-79
2024/02/18 07:21:51;;;;;;;1999.90;999.90;;;;;;;;;;6179725;23;20423;-79
2024/02/18 07:24:18;;;;;;;1999.90;999.90;;;;;;;;;;6180583;23;20053;-80
2024/02/18 07:26:44;;;;;;;1999.90;999.90;;;;;;;;;;6180289;23;20024;-79
2024/02/18 07:29:11;;;;;;;1999.90;999.90;;;;;;;;;;6180917;23;20027;-80
2024/02/18 07:31:37;;;;;;;1999.90;999.90;;;;;;;;;;6180255;23;20024;-80
2024/02/18 07:34:05;;;;;;;1999.90;999.90;;;;;;;;;;6180474;23;20039;-81
2024/02/18 07:36:31;;;;;;;1999.90;999.90;;;;;;;;;;6182093;23;20021;-81
2024/02/18 07:38:59;;;;;;;1999.90;999.90;;;;;;;;;;6182588;23;20099;-80
2024/02/18 07:41:26;;;;;;;1999.90;999.90;;;;;;;;;;6182610;23;20351;-81
2024/02/18 07:43:53;;;;;;;1999.90;999.90;;;;;;;;;;6182533;23;20037;-82
2024/02/18 07:46:19;;;;;;;1999.90;999.90;;;;;;;;;;6182768;23;20083;-82
2024/02/18 07:48:46;;;;;;;1999.90;999.90;;;;;;;;;;6182901;23;20064;-81
2024/02/18 07:51:12;;;;;;;1999.90;999.90;;;;;;;;;;6182312;23;20017;-81
2024/02/18 07:53:48;;;;;;;1999.90;999.90;;;;;;;;;;6183061;23;20458;-80
2024/02/18 07:56:15;;;;;;;1999.90;999.90;;;;;;;;;;6183264;23;20116;-82
2024/02/18 07:58:42;;;;;;;1999.90;999.90;;;;;;;;;;6183580;23;20023;-82
2024/02/18 08:01:08;;;;;;;1999.90;999.90;;;;;;;;;;6183386;23;20055;-81
2024/02/18 08:03:35;;;;;;;1999.90;999.90;;;;;;;;;;6182908;23;20089;-82
2024/02/18 08:06:01;;;;;;;1999.90;999.90;;;;;;;;;;6182820;23;20816;-81
2024/02/18 08:08:28;;;;;;;1999.90;999.90;;;;;;;;;;6183221;23;20020;-82
2024/02/18 08:10:54;;;;;;;1999.90;999.90;;;;;;;;;;6183248;23;20029;-83
2024/02/18 08:13:22;;;;;;;1999.90;999.90;;;;;;;;;;6183866;23;20045;-82
2024/02/18 08:15:49;;;;;;;1999.90;999.90;;;;;;;;;;6183704;23;20103;-83
2024/02/18 08:18:15;;;;;;;1999.90;999.90;;;;;;;;;;6183893;23;20072;-83
2024/02/18 08:20:43;;;;;;;1999.90;999.90;;;;;;;;;;6182590;23;20017;-84
2024/02/18 08:23:10;;;;;;;1999.90;999.90;;;;;;;;;;6182770;23;20032;-83
2024/02/18 08:25:36;;;;;;;1999.90;999.90;;;;;;;;;;6182960;23;20023;-83
2024/02/18 08:28:03;;;;;;;1999.90;999.90;;;;;;;;;;6182189;23;20028;-83
2024/02/18 08:30:31;;;;;;;1999.90;999.90;;;;;;;;;;6182768;23;20017;-83
2024/02/18 08:32:58;;;;;;;1999.90;999.90;;;;;;;;;;6182819;23;20027;-83
2024/02/18 08:35:24;;;;;;;1999.90;999.90;;;;;;;;;;6182869;23;20017;-83
2024/02/18 08:37:51;;;;;;;1999.90;999.90;;;;;;;;;;6183083;23;20021;-83
2024/02/18 08:40:18;;;;;;;1999.90;999.90;;;;;;;;;;6182536;23;20331;-84
2024/02/18 08:42:44;;;;;;;1999.90;999.90;;;;;;;;;;6181822;23;20025;-83
2024/02/18 08:45:11;;;;;;;1999.90;999.90;;;;;;;;;;6181832;23;20021;-82
2024/02/18 08:47:39;;;;;;;1999.90;999.90;;;;;;;;;;6181599;23;20232;-83
2024/02/18 08:50:06;;;;;;;1999.90;999.90;;;;;;;;;;6181753;23;20017;-83
2024/02/18 08:52:33;;;;;;;1999.90;999.90;;;;;;;;;;6181514;23;20021;-83
2024/02/18 08:55:05;;;;;;;1999.90;999.90;;;;;;;;;;6181991;23;20022;-83
2024/02/18 08:57:32;;;;;;;1999.90;999.90;;;;;;;;;;6181592;23;20107;-83
2024/02/18 09:00:01;;;;;;;1999.90;999.90;;;;;;;;;;6181229;23;20352;-82
2024/02/18 09:02:28;;;;;;;1999.90;999.90;;;;;;;;;;6180821;23;20024;-83
2024/02/18 09:04:59;;;;;;;1999.90;999.90;;;;;;;;;;6181809;23;20021;-83
2024/02/18 09:07:25;;;;;;;1999.90;999.90;;;;;;;;;;6181559;23;20024;-83
2024/02/18 09:09:52;;;;;;;1999.90;999.90;;;;;;;;;;6181883;23;20099;-83
2024/02/18 09:12:20;;;;;;;1999.90;999.90;;;;;;;;;;6181706;23;20380;-83
2024/02/18 09:14:47;;;;;;;1999.90;999.90;;;;;;;;;;6181363;23;20017;-82
2024/02/18 09:17:13;;;;;;;1999.90;999.90;;;;;;;;;;6180515;23;20420;-83
2024/02/18 09:19:40;;;;;;;1999.90;999.90;;;;;;;;;;6180711;23;20108;-84
2024/02/18 09:22:08;;;;;;;1999.90;999.90;;;;;;;;;;6180661;23;20065;-85
2024/02/18 09:24:34;;;;;;;1999.90;999.90;;;;;;;;;;6183132;23;20084;-85
2024/02/18 09:27:01;;;;;;;1999.90;999.90;;;;;;;;;;6183248;23;20027;-85
2024/02/18 09:29:29;;;;;;;1999.90;999.90;;;;;;;;;;6182871;23;20683;-85
2024/02/18 09:31:56;;;;;;;1999.90;999.90;;;;;;;;;;6182533;23;20863;-86
2024/02/18 09:34:22;;;;;;;1999.90;999.90;;;;;;;;;;6182750;23;20017;-86
2024/02/18 09:36:49;;;;;;;1999.90;999.90;;;;;;;;;;6182979;23;20105;-85
2024/02/18 09:39:17;;;;;;;1999.90;999.90;;;;;;;;;;6183309;23;20647;-86
2024/02/18 09:41:46;;;;;;;1999.90;999.90;;;;;;;;;;6183219;23;20017;-85
2024/02/18 09:44:14;;;;;;;1999.90;999.90;;;;;;;;;;6183641;23;20020;-85
2024/02/18 09:46:42;;;;;;;1999.90;999.90;;;;;;;;;;6182731;23;20072;-86
2024/02/18 09:49:09;;;;;;;1999.90;999.90;;;;;;;;;;6183480;23;20040;-85
2024/02/18 09:51:36;;;;;;;1999.90;999.90;;;;;;;;;;6182762;23;20092;-85
2024/02/18 09:54:19;;;;;;;1999.90;999.90;;;;;;;;;;6183384;23;20075;-85
2024/02/18 09:56:46;;;;;;;1999.90;999.90;;;;;;;;;;6182352;23;20558;-85
2024/02/18 09:59:12;;;;;;;1999.90;999.90;;;;;;;;;;6182600;23;20025;-85
2024/02/18 10:01:41;;;;;;;1999.90;999.90;;;;;;;;;;6182818;23;20507;-87
2024/02/18 10:04:07;;;;;;;1999.90;999.90;;;;;;;;;;6183394;23;20095;-86
2024/02/18 10:06:34;;;;;;;1999.90;999.90;;;;;;;;;;6183144;23;20027;-86
2024/02/18 10:09:01;;;;;;;1999.90;999.90;;;;;;;;;;6183362;23;20100;-86
2024/02/18 10:11:32;;;;;;;1999.90;999.90;;;;;;;;;;6182734;23;20605;-86
2024/02/18 10:13:59;;;;;;;1999.90;999.90;;;;;;;;;;6182642;23;20067;-86
2024/02/18 10:16:25;;;;;;;1999.90;999.90;;;;;;;;;;6184368;23;20024;-84
2024/02/18 10:18:54;;;;;;;1999.90;999.90;;;;;;;;;;6186798;23;20466;-83
2024/02/18 10:21:20;;;;;;;1999.90;999.90;;;;;;;;;;6183512;23;20116;-87
2024/02/18 10:23:49;;;;;;;1999.90;999.90;;;;;;;;;;6183270;23;20048;-86
2024/02/18 10:26:15;;;;;;;1999.90;999.90;;;;;;;;;;6183282;23;20087;-86
2024/02/18 10:28:43;;;;;;;1999.90;999.90;;;;;;;;;;6182873;23;20447;-85
2024/02/18 10:31:10;;;;;;;1999.90;999.90;;;;;;;;;;6183095;23;20017;-86
2024/02/18 10:33:36;;;;;;;1999.90;999.90;;;;;;;;;;6182801;23;20024;-86
2024/02/18 10:36:07;;;;;;;1999.90;999.90;;;;;;;;;;6182915;23;20431;-87
2024/02/18 10:38:35;;;;;;;1999.90;999.90;;;;;;;;;;6183760;23;20096;-86
2024/02/18 10:41:03;;;;;;;1999.90;999.90;;;;;;;;;;6182724;23;20092;-87
2024/02/18 10:43:31;;;;;;;1999.90;999.90;;;;;;;;;;6183141;23;20059;-85
2024/02/18 10:46:00;;;;;;;1999.90;999.90;;;;;;;;;;6182789;23;20071;-86
2024/02/18 10:48:27;;;;;;;1999.90;999.90;;;;;;;;;;6182730;23;20104;-86
2024/02/18 10:50:54;;;;;;;1999.90;999.90;;;;;;;;;;6183055;23;20344;-85
2024/02/18 10:53:34;;;;;;;1999.90;999.90;;;;;;;;;;6182381;23;20101;-85
2024/02/18 10:56:07;;;;;;;1999.90;999.90;;;;;;;;;;6183326;23;20017;-86
2024/02/18 10:58:42;;;;;;;1999.90;999.90;;;;;;;;;;6182538;23;20080;-85
2024/02/18 11:01:13;;;;;;;1999.90;999.90;;;;;;;;;;6182391;23;20076;-86
2024/02/18 11:03:46;;;;;;;1999.90;999.90;;;;;;;;;;6182168;23;20036;-84
2024/02/18 11:06:13;;;;;;;1999.90;999.90;;;;;;;;;;6182419;23;20097;-84
2024/02/18 11:08:43;;;;;;;1999.90;999.90;;;;;;;;;;6182294;23;20452;-85
2024/02/18 11:11:10;;;;;;;1999.90;999.90;;;;;;;;;;6183379;23;20021;-82
2024/02/18 11:13:39;;;;;;;1999.90;999.90;;;;;;;;;;6184279;23;20410;-85
2024/02/18 11:16:09;;;;;;;1999.90;999.90;;;;;;;;;;6184554;23;20399;-89
2024/02/18 11:18:37;;;;;;;1999.90;999.90;;;;;;;;;;6184070;23;20021;-86
2024/02/18 11:21:04;;;;;;;1999.90;999.90;;;;;;;;;;6184784;23;20021;-86
2024/02/18 11:23:32;;;;;;;1999.90;999.90;;;;;;;;;;6184006;23;20040;-88
2024/02/18 11:25:58;;;;;;;1999.90;999.90;;;;;;;;;;6184525;23;20075;-84
2024/02/18 11:28:25;;;;;;;1999.90;999.90;;;;;;;;;;6184029;23;20480;-87
2024/02/18 11:30:52;;;;;;;1999.90;999.90;;;;;;;;;;6184540;23;20017;-88
2024/02/18 11:33:19;;;;;;;1999.90;999.90;;;;;;;;;;6185243;23;20436;-84
2024/02/18 11:35:47;;;;;;;1999.90;999.90;;;;;;;;;;6184788;23;20116;-85
2024/02/18 11:38:14;;;;;;;1999.90;999.90;;;;;;;;;;6184232;23;20025;-88
2024/02/18 11:40:45;;;;;;;1999.90;999.90;;;;;;;;;;6184481;23;20115;-88
2024/02/18 11:43:12;;;;;;;1999.90;999.90;;;;;;;;;;6184554;23;20464;-86
2024/02/18 11:45:44;;;;;;;1999.90;999.90;;;;;;;;;;6185026;23;20028;-88
2024/02/18 11:48:11;;;;;;;1999.90;999.90;;;;;;;;;;6184157;23;20057;-88
2024/02/18 11:50:37;;;;;;;1999.90;999.90;;;;;;;;;;6184454;23;20418;-86
2024/02/18 11:53:06;;;;;;;1999.90;999.90;;;;;;;;;;6183616;23;20053;-86
2024/02/18 11:55:33;;;;;;;1999.90;999.90;;;;;;;;;;6184084;23;20028;-85
2024/02/18 11:58:00;;;;;;;1999.90;999.90;;;;;;;;;;6184028;23;20125;-84
2024/02/18 12:00:27;;;;;;;1999.90;999.90;;;;;;;;;;6184129;23;20032;-84
2024/02/18 12:02:54;;;;;;;1999.90;999.90;;;;;;;;;;6184446;23;20031;-84
2024/02/18 12:05:22;;;;;;;1999.90;999.90;;;;;;;;;;6183938;23;20028;-85
2024/02/18 12:07:49;;;;;;;1999.90;999.90;;;;;;;;;;6183731;23;20025;-87
2024/02/18 12:10:18;;;;;;;1999.90;999.90;;;;;;;;;;6184161;23;20031;-83
2024/02/18 12:12:45;;;;;;;1999.90;999.90;;;;;;;;;;6183545;23;20068;-83
2024/02/18 12:15:20;;;;;;;1999.90;999.90;;;;;;;;;;6184042;23;20352;-83
2024/02/18 12:17:48;;;;;;;1999.90;999.90;;;;;;;;;;6184094;23;20104;-83
2024/02/18 12:20:19;;;;;;;1999.90;999.90;;;;;;;;;;6183311;23;20025;-84
2024/02/18 12:22:46;;;;;;;1999.90;999.90;;;;;;;;;;6183368;23;20522;-84
2024/02/18 12:25:14;;;;;;;1999.90;999.90;;;;;;;;;;6184030;23;20056;-85
2024/02/18 12:27:42;;;;;;;1999.90;999.90;;;;;;;;;;6183190;23;20029;-84
2024/02/18 12:30:10;;;;;;;1999.90;999.90;;;;;;;;;;6183740;23;20021;-83
2024/02/18 12:32:37;;;;;;;1999.90;999.90;;;;;;;;;;6183637;23;20116;-84
2024/02/18 12:35:04;;;;;;;1999.90;999.90;;;;;;;;;;6182801;23;20017;-84
2024/02/18 12:37:31;;;;;;;1999.90;999.90;;;;;;;;;;6183361;23;20096;-85
2024/02/18 12:39:57;;;;;;;1999.90;999.90;;;;;;;;;;6183497;23;20021;-81
2024/02/18 12:42:24;;;;;;;1999.90;999.90;;;;;;;;;;6183473;23;20025;-83
2024/02/18 12:44:52;;;;;;;1999.90;999.90;;;;;;;;;;6183667;23;20017;-83
2024/02/18 12:47:19;;;;;;;1999.90;999.90;;;;;;;;;;6184385;23;20031;-84
2024/02/18 12:49:46;;;;;;;1999.90;999.90;;;;;;;;;;6183729;23;20067;-84
2024/02/18 12:52:14;;;;;;;1999.90;999.90;;;;;;;;;;6183566;23;20017;-83
2024/02/18 12:55:03;;;;;;;1999.90;999.90;;;;;;;;;;6183709;23;20021;-82
2024/02/18 12:57:30;;;;;;;1999.90;999.90;;;;;;;;;;6183280;23;20451;-84
2024/02/18 12:59:58;;;;;;;1999.90;999.90;;;;;;;;;;6183803;23;20104;-83
2024/02/18 13:02:25;;;;;;;1999.90;999.90;;;;;;;;;;6183172;23;20049;-84
2024/02/18 13:04:52;;;;;;;1999.90;999.90;;;;;;;;;;6183251;23;20021;-83
2024/02/18 13:07:20;;;;;;;1999.90;999.90;;;;;;;;;;6183397;23;20017;-84
2024/02/18 13:09:46;;;;;;;1999.90;999.90;;;;;;;;;;6183186;23;20028;-86
2024/02/18 13:12:13;;;;;;;1999.90;999.90;;;;;;;;;;6183565;23;20017;-83
2024/02/18 13:14:41;;;;;;;1999.90;999.90;;;;;;;;;;6182901;23;20021;-84
2024/02/18 13:17:09;;;;;;;1999.90;999.90;;;;;;;;;;6183483;23;20041;-84
2024/02/18 13:19:42;;;;;;;1999.90;999.90;;;;;;;;;;6183046;23;20540;-85
2024/02/18 13:22:09;;;;;;;1999.90;999.90;;;;;;;;;;6183006;23;20025;-83
2024/02/18 13:24:35;;;;;;;1999.90;999.90;;;;;;;;;;6182473;23;20029;-86
2024/02/18 13:27:02;;;;;;;1999.90;999.90;;;;;;;;;;6182625;23;20028;-87
2024/02/18 13:29:29;;;;;;;1999.90;999.90;;;;;;;;;;6183079;23;20088;-84
2024/02/18 13:31:55;;;;;;;1999.90;999.90;;;;;;;;;;6183008;23;20096;-84
2024/02/18 13:34:25;;;;;;;1999.90;999.90;;;;;;;;;;6183296;23;20330;-84
2024/02/18 13:36:52;;;;;;;1999.90;999.90;;;;;;;;;;6183335;23;20021;-83
2024/02/18 13:39:18;;;;;;;1999.90;999.90;;;;;;;;;;6183081;23;20031;-87
2024/02/18 13:41:45;;;;;;;1999.90;999.90;;;;;;;;;;6182752;23;20459;-85